Overview Statistics Trail Chart Weather Telemetry Raw packets
 

This is the latest recevied weather packets stored in our database for station/object CE1JFB-10. If no packets are shown the sender has not sent any weather packets the latest 10 day(s).

<< 4 5 6 7 8 9 >>
Time Temp. Humidity Pressure Rain* Wind** Luminosity Snow
1777624285 21.67° C 59% 1012.4 hPa - - - -
1777620685 21.67° C 60% 1012.6 hPa - - - -
1777617084 22.22° C 59% 1012.7 hPa - - - -
1777613484 22.22° C 59% 1012.5 hPa - - - -
1777609897 22.22° C 59% 1012.8 hPa - - - -
1777606284 22.22° C 59% 1012.8 hPa - - - -
1777602684 22.22° C 59% 1012.8 hPa - - - -
1777599084 22.22° C 59% 1012.8 hPa - - - -
1777595484 21.67° C 59% 1012.3 hPa - - - -
1777591884 21.67° C 58% 1011.3 hPa - - - -
1777588284 22.22° C 57% 1010.6 hPa - - - -
1777584683 22.78° C 56% 1009.5 hPa - - - -
1777581083 23.33° C 54% 1009.1 hPa - - - -
1777577483 23.89° C 54% 1009.2 hPa - - - -
1777573883 23.33° C 53% 1009.9 hPa - - - -
1777570283 23.33° C 54% 1010.5 hPa - - - -
1777566683 22.78° C 55% 1011 hPa - - - -
1777563077 22.22° C 57% 1012.1 hPa - - - -
1777559477 22.22° C 57% 1012.6 hPa - - - -
1777553475 21.11° C 60% 1011.7 hPa - - - -
1777549875 20.56° C 60% 1011.3 hPa - - - -
1777545069 20° C 61% 1010 hPa - - - -
1777541469 20° C 60% 1009.4 hPa - - - -
1777537869 19.44° C 59% 1009.4 hPa - - - -
1777534269 20° C 59% 1009.3 hPa - - - -

* Rain since midnight (hover to see other rain measurements)
** Current wind speed in m/s (hover to see current wind gust speed)